Time;durP1;ratioP1;P1;durP2;ratioP2;P2;SDS_P1;SDS_P2;PMS_P1;PMS_P2;Temp;Humidity;BMP_temperature;BMP_pressure;BME280_temperature;BME280_humidity;BME280_pressure;Samples;Min_cycle;Max_cycle;Signal;HPM_P1;HPM_P2
2021/05/17 00:00:10;;;;;;;4.57;3.80;;;13.70;99.90;;;;;;5097660;28;20204;-76
2021/05/17 00:02:36;;;;;;;5.37;4.00;;;13.70;99.90;;;;;;5099267;28;20654;-76
2021/05/17 00:05:06;;;;;;;4.73;3.97;;;13.70;99.90;;;;;;5103912;28;20257;-76
2021/05/17 00:07:33;;;;;;;4.30;3.90;;;13.70;99.90;;;;;;5092155;28;20271;-76
2021/05/17 00:09:59;;;;;;;4.70;4.20;;;13.60;99.90;;;;;;5094883;28;20215;-76
2021/05/17 00:12:26;;;;;;;4.00;3.60;;;13.70;99.90;;;;;;5099049;28;20588;-77
2021/05/17 00:14:53;;;;;;;4.50;3.73;;;13.60;99.90;;;;;;5094641;28;20255;-76
2021/05/17 00:17:20;;;;;;;4.50;4.10;;;13.60;99.90;;;;;;5097820;28;20291;-76
2021/05/17 00:19:47;;;;;;;4.10;3.70;;;13.60;99.90;;;;;;5094322;28;20228;-77
2021/05/17 00:22:14;;;;;;;5.73;3.97;;;13.60;99.90;;;;;;5104580;28;20279;-77
2021/05/17 00:24:41;;;;;;;4.40;4.00;;;13.60;99.90;;;;;;5108682;28;20709;-76
2021/05/17 00:27:08;;;;;;;3.90;3.50;;;13.50;99.90;;;;;;5100144;28;20292;-77
2021/05/17 00:29:35;;;;;;;4.73;4.23;;;13.50;99.90;;;;;;5100740;28;20260;-77
2021/05/17 00:32:03;;;;;;;4.57;4.10;;;13.50;99.90;;;;;;5102887;28;20220;-76
2021/05/17 00:34:30;;;;;;;4.00;3.60;;;13.50;99.90;;;;;;5102572;28;20226;-75
2021/05/17 00:36:57;;;;;;;4.40;3.53;;;13.50;99.90;;;;;;5095204;28;20609;-76
2021/05/17 00:39:23;;;;;;;5.27;4.50;;;13.40;99.90;;;;;;5101539;28;20205;-76
2021/05/17 00:41:50;;;;;;;8.03;4.10;;;13.40;99.90;;;;;;5106063;28;20646;-77
2021/05/17 00:44:17;;;;;;;4.73;4.33;;;13.40;99.90;;;;;;5101369;28;20240;-77
2021/05/17 00:46:45;;;;;;;4.40;3.83;;;13.40;99.90;;;;;;5098611;28;20253;-77
2021/05/17 00:49:12;;;;;;;4.27;3.87;;;13.40;99.90;;;;;;5103483;28;20233;-76
2021/05/17 00:51:40;;;;;;;4.00;3.57;;;13.40;99.90;;;;;;5106935;28;20285;-77
2021/05/17 00:54:06;;;;;;;5.23;3.53;;;13.30;99.90;;;;;;5105504;28;20214;-77
2021/05/17 00:56:33;;;;;;;3.83;3.53;;;13.40;99.90;;;;;;5098912;27;20204;-77
2021/05/17 00:59:00;;;;;;;5.10;3.87;;;13.30;99.90;;;;;;5106827;28;20236;-76
2021/05/17 01:01:26;;;;;;;4.53;3.60;;;13.30;99.90;;;;;;5112691;28;20209;-76
2021/05/17 01:03:53;;;;;;;4.80;3.80;;;13.30;99.90;;;;;;5109149;28;20391;-76
2021/05/17 01:06:22;;;;;;;4.30;3.90;;;13.20;99.90;;;;;;5102570;28;20648;-76
2021/05/17 01:08:58;;;;;;;4.47;3.67;;;13.20;99.90;;;;;;5101249;28;20209;-77
2021/05/17 01:11:26;;;;;;;4.67;4.27;;;13.20;99.90;;;;;;5096116;28;20565;-76
2021/05/17 01:13:55;;;;;;;4.57;3.80;;;13.20;99.90;;;;;;5100327;28;20211;-77
2021/05/17 01:16:23;;;;;;;5.50;4.10;;;13.20;99.90;;;;;;5098621;28;20208;-75
2021/05/17 01:18:51;;;;;;;4.80;4.07;;;13.10;99.90;;;;;;5093085;28;20295;-76
2021/05/17 01:21:21;;;;;;;4.97;4.47;;;13.10;99.90;;;;;;5099839;28;20193;-76
2021/05/17 01:23:55;;;;;;;6.07;4.20;;;13.10;99.90;;;;;;5102431;28;20684;-76
2021/05/17 01:26:22;;;;;;;5.67;4.77;;;13.10;99.90;;;;;;5096052;28;20204;-76
2021/05/17 01:28:49;;;;;;;4.93;4.53;;;13.00;99.90;;;;;;5099372;28;20413;-76
2021/05/17 01:31:16;;;;;;;4.87;4.13;;;13.00;99.90;;;;;;5101585;28;20294;-77
2021/05/17 01:33:44;;;;;;;5.40;4.90;;;13.00;99.90;;;;;;5109791;28;20211;-77
2021/05/17 01:36:13;;;;;;;6.30;4.77;;;13.00;99.90;;;;;;5100322;28;20606;-76
2021/05/17 01:38:41;;;;;;;5.73;5.17;;;13.00;99.90;;;;;;5103258;28;20278;-76
2021/05/17 01:41:09;;;;;;;5.50;5.00;;;13.00;99.90;;;;;;5110400;28;20298;-77
2021/05/17 01:43:39;;;;;;;5.93;4.83;;;12.90;99.90;;;;;;5103143;28;20220;-76
2021/05/17 01:46:10;;;;;;;6.23;4.77;;;12.90;99.90;;;;;;5102286;28;20204;-77
2021/05/17 01:48:39;;;;;;;5.63;5.10;;;12.90;99.90;;;;;;5097908;28;20208;-76
2021/05/17 01:51:14;;;;;;;6.83;5.10;;;12.90;99.90;;;;;;5107475;28;20287;-76
2021/05/17 01:53:42;;;;;;;7.77;5.20;;;12.90;99.90;;;;;;5095507;28;20200;-76
2021/05/17 01:56:11;;;;;;;6.10;5.50;;;12.80;99.90;;;;;;5107011;28;20291;-76
2021/05/17 01:58:38;;;;;;;6.13;5.23;;;12.90;99.90;;;;;;5106071;28;20637;-76
2021/05/17 02:01:07;;;;;;;5.40;4.90;;;12.80;99.90;;;;;;5101387;28;20234;-75
2021/05/17 02:03:35;;;;;;;5.83;5.23;;;12.80;99.90;;;;;;5111401;28;20228;-75
2021/05/17 02:06:02;;;;;;;7.13;5.70;;;12.80;99.90;;;;;;5100108;28;20255;-76
2021/05/17 02:08:31;;;;;;;6.23;5.63;;;12.70;99.90;;;;;;5101853;28;20279;-76
2021/05/17 02:10:57;;;;;;;6.07;5.57;;;12.80;99.90;;;;;;5093307;28;20222;-77
2021/05/17 02:13:27;;;;;;;6.13;5.40;;;12.70;99.90;;;;;;5098114;28;20216;-75
2021/05/17 02:15:54;;;;;;;6.13;5.53;;;12.70;99.90;;;;;;5096577;28;20230;-74
2021/05/17 02:18:20;;;;;;;6.90;6.20;;;12.70;99.90;;;;;;5097492;27;20563;-70
2021/05/17 02:20:47;;;;;;;7.27;6.30;;;12.70;99.90;;;;;;5106977;28;20210;-73
2021/05/17 02:23:16;;;;;;;7.17;6.47;;;12.70;99.90;;;;;;5106426;28;20769;-76
2021/05/17 02:25:44;;;;;;;7.33;6.10;;;12.70;99.90;;;;;;5100315;28;20295;-76
2021/05/17 02:28:11;;;;;;;6.87;6.17;;;12.70;99.90;;;;;;5110390;28;20328;-76
2021/05/17 02:30:40;;;;;;;7.00;6.40;;;12.60;99.90;;;;;;5103850;27;20232;-76
2021/05/17 02:33:08;;;;;;;8.40;6.93;;;12.60;99.90;;;;;;5097576;28;20264;-75
2021/05/17 02:35:36;;;;;;;7.30;6.27;;;12.60;99.90;;;;;;5093022;28;20205;-75
2021/05/17 02:38:03;;;;;;;7.30;6.53;;;12.50;99.90;;;;;;5095846;28;20209;-76
2021/05/17 02:40:31;;;;;;;7.30;6.60;;;12.60;99.90;;;;;;5100766;28;20201;-75
2021/05/17 02:43:01;;;;;;;6.80;6.20;;;12.50;99.90;;;;;;5092902;28;20733;-76
2021/05/17 02:45:29;;;;;;;8.73;6.30;;;12.50;99.90;;;;;;5095325;28;20201;-75
2021/05/17 02:47:58;;;;;;;8.63;6.63;;;12.50;99.90;;;;;;5100221;28;20200;-75
2021/05/17 02:50:33;;;;;;;7.97;6.40;;;12.50;99.90;;;;;;5096036;28;20212;-76
2021/05/17 02:53:01;;;;;;;6.63;6.03;;;12.50;99.90;;;;;;5100497;28;20204;-75
2021/05/17 02:55:31;;;;;;;6.23;5.63;;;12.50;99.90;;;;;;5101920;28;20241;-75
2021/05/17 02:58:06;;;;;;;6.70;6.00;;;12.50;99.90;;;;;;5093813;28;20228;-75
2021/05/17 03:00:33;;;;;;;6.63;5.90;;;12.50;99.90;;;;;;5097829;28;20210;-75
2021/05/17 03:03:07;;;;;;;7.40;6.10;;;12.60;99.90;;;;;;5097219;28;20228;-75
2021/05/17 03:05:37;;;;;;;6.33;5.73;;;12.50;99.90;;;;;;5097369;28;20295;-75
2021/05/17 03:08:06;;;;;;;6.60;5.90;;;12.50;99.90;;;;;;5103007;28;20211;-75
2021/05/17 03:10:35;;;;;;;7.07;6.37;;;12.50;99.90;;;;;;5100439;28;20292;-75
2021/05/17 03:13:09;;;;;;;6.20;5.60;;;12.50;99.90;;;;;;5097109;28;20707;-75
2021/05/17 03:15:38;;;;;;;7.03;6.33;;;12.60;99.90;;;;;;5102012;28;20253;-75
2021/05/17 03:18:06;;;;;;;7.40;6.43;;;12.60;99.90;;;;;;5095428;28;20212;-75
2021/05/17 03:20:33;;;;;;;7.63;6.83;;;12.70;99.90;;;;;;5100610;28;20291;-75
2021/05/17 03:23:00;;;;;;;7.27;6.57;;;12.80;99.90;;;;;;5095627;28;20343;-77
2021/05/17 03:25:32;;;;;;;7.30;6.57;;;12.80;99.90;;;;;;5100533;28;20234;-76
2021/05/17 03:27:59;;;;;;;8.07;6.30;;;12.90;99.90;;;;;;5106482;28;20305;-75
2021/05/17 03:30:26;;;;;;;7.70;6.83;;;13.00;99.90;;;;;;5102622;28;20322;-75
2021/05/17 03:32:53;;;;;;;6.70;6.10;;;13.10;99.90;;;;;;5108076;28;20697;-75
2021/05/17 03:35:20;;;;;;;8.77;6.37;;;13.20;99.90;;;;;;5094564;28;20201;-76
2021/05/17 03:37:48;;;;;;;7.20;6.50;;;13.30;99.90;;;;;;5103002;28;20645;-76
2021/05/17 03:40:15;;;;;;;9.17;6.47;;;13.30;99.90;;;;;;5095584;28;20235;-76
2021/05/17 03:42:42;;;;;;;10.23;8.40;;;13.40;99.90;;;;;;5105311;28;20307;-76
2021/05/17 03:45:10;;;;;;;10.47;7.43;;;13.50;99.90;;;;;;5100218;28;20245;-75
2021/05/17 03:47:37;;;;;;;7.50;6.50;;;13.50;99.90;;;;;;5098871;28;20237;-76
2021/05/17 03:50:05;;;;;;;8.43;6.77;;;13.60;99.90;;;;;;5107976;28;20291;-75
2021/05/17 03:52:32;;;;;;;8.97;7.27;;;13.70;99.90;;;;;;5091927;28;20204;-75
2021/05/17 03:54:59;;;;;;;7.40;6.67;;;13.70;99.90;;;;;;5103327;28;20647;-75
2021/05/17 03:57:26;;;;;;;8.40;7.20;;;13.80;99.90;;;;;;5106598;28;20614;-74
2021/05/17 03:59:52;;;;;;;8.90;5.93;;;13.80;99.90;;;;;;5105823;28;20685;-75
2021/05/17 04:02:19;;;;;;;9.73;7.33;;;13.80;99.90;;;;;;5092015;28;20236;-74
2021/05/17 04:04:53;;;;;;;8.70;6.80;;;13.90;99.90;;;;;;5096445;28;20200;-75
2021/05/17 04:07:41;;;;;;;7.20;6.47;;;13.90;99.90;;;;;;5098268;28;20253;-75
2021/05/17 04:15:37;;;;;;;9.03;7.27;;;14.00;99.90;;;;;;5093893;28;20192;-74
2021/05/17 04:18:04;;;;;;;7.83;6.73;;;14.10;99.90;;;;;;5102425;28;20207;-74
2021/05/17 04:20:31;;;;;;;7.37;6.67;;;14.10;99.90;;;;;;5109609;28;20213;-74
2021/05/17 04:22:57;;;;;;;10.30;6.97;;;14.10;99.90;;;;;;5102394;28;20226;-74
2021/05/17 04:25:25;;;;;;;8.67;7.70;;;14.20;99.90;;;;;;5102910;28;20637;-75
2021/05/17 04:27:51;;;;;;;7.23;6.53;;;14.20;99.90;;;;;;5106766;28;20250;-75
2021/05/17 04:30:18;;;;;;;9.73;7.27;;;14.30;99.90;;;;;;5095948;28;20689;-76
2021/05/17 04:32:44;;;;;;;8.33;7.43;;;14.30;99.90;;;;;;5096750;28;20329;-77
2021/05/17 04:35:12;;;;;;;11.30;7.10;;;14.30;99.90;;;;;;5096441;28;20248;-76
2021/05/17 04:37:38;;;;;;;8.27;7.33;;;14.30;99.90;;;;;;5102957;28;20231;-76
2021/05/17 04:40:08;;;;;;;9.93;8.70;;;14.30;99.90;;;;;;5115217;28;20215;-76
2021/05/17 04:42:35;;;;;;;10.43;8.70;;;14.30;99.90;;;;;;5098699;28;20311;-76
2021/05/17 04:45:02;;;;;;;10.93;8.63;;;14.30;99.90;;;;;;5108319;28;20210;-77
2021/05/17 04:47:28;;;;;;;10.77;8.03;;;14.30;99.90;;;;;;5104171;28;20220;-76
2021/05/17 04:49:55;;;;;;;11.27;8.33;;;14.30;99.90;;;;;;5107584;28;20226;-76
2021/05/17 04:52:22;;;;;;;11.00;8.73;;;14.30;99.90;;;;;;5102299;28;20213;-75
2021/05/17 04:54:49;;;;;;;10.40;8.37;;;14.30;99.90;;;;;;5099896;28;20650;-76
2021/05/17 04:57:15;;;;;;;12.33;9.10;;;14.30;99.90;;;;;;5104062;28;20287;-75
2021/05/17 04:59:42;;;;;;;11.20;9.17;;;14.40;99.90;;;;;;5113578;28;20242;-75
2021/05/17 05:02:08;;;;;;;10.27;8.50;;;14.40;99.90;;;;;;5097125;28;20382;-77
2021/05/17 05:04:35;;;;;;;13.50;8.97;;;14.40;99.90;;;;;;5100693;28;20196;-77
2021/05/17 05:07:01;;;;;;;9.67;8.67;;;14.50;99.90;;;;;;5116944;28;20232;-76
2021/05/17 05:09:28;;;;;;;9.83;8.63;;;14.50;99.90;;;;;;5097096;28;20239;-77
2021/05/17 05:11:54;;;;;;;10.60;8.63;;;14.50;99.90;;;;;;5097275;28;20204;-77
2021/05/17 05:14:21;;;;;;;9.77;8.33;;;14.60;99.90;;;;;;5098006;28;20323;-77
2021/05/17 05:16:48;;;;;;;9.00;8.07;;;14.60;99.90;;;;;;5099150;28;20255;-77
2021/05/17 05:19:15;;;;;;;11.00;9.30;;;14.60;99.90;;;;;;5098570;28;20717;-76
2021/05/17 05:21:41;;;;;;;9.23;8.20;;;14.60;99.90;;;;;;5105811;28;20205;-77
2021/05/17 05:24:09;;;;;;;10.33;8.97;;;14.60;99.90;;;;;;5109958;28;20227;-77
2021/05/17 05:26:53;;;;;;;9.90;8.87;;;14.70;99.90;;;;;;5106214;28;20273;-78
2021/05/17 05:29:27;;;;;;;11.33;9.20;;;14.70;99.90;;;;;;5107786;28;20265;-76
2021/05/17 05:32:00;;;;;;;13.40;11.17;;;14.70;99.90;;;;;;5111559;28;20579;-77
2021/05/17 05:34:29;;;;;;;10.10;9.03;;;14.80;99.90;;;;;;5104831;28;20225;-76
2021/05/17 05:36:58;;;;;;;9.90;9.00;;;14.80;99.90;;;;;;5102544;28;20295;-76
2021/05/17 05:39:24;;;;;;;10.03;8.93;;;14.90;99.90;;;;;;5099643;28;20201;-75
2021/05/17 05:41:51;;;;;;;8.97;8.07;;;15.00;99.90;;;;;;5103560;28;20304;-76
2021/05/17 05:44:17;;;;;;;10.77;9.00;;;15.00;99.90;;;;;;5096745;28;20308;-75
2021/05/17 05:46:44;;;;;;;10.53;9.43;;;15.10;99.90;;;;;;5105228;28;20204;-76
2021/05/17 05:49:11;;;;;;;11.07;8.77;;;15.10;99.90;;;;;;5097436;28;20280;-76
2021/05/17 05:51:38;;;;;;;9.60;8.60;;;15.10;99.90;;;;;;5094466;28;20288;-77
2021/05/17 05:54:05;;;;;;;12.67;8.83;;;15.20;99.90;;;;;;5103028;27;20197;-76
2021/05/17 05:56:32;;;;;;;9.80;8.30;;;15.20;99.90;;;;;;5099688;28;20328;-76
2021/05/17 05:58:59;;;;;;;11.70;8.77;;;15.20;99.90;;;;;;5106476;28;20200;-76
2021/05/17 06:01:25;;;;;;;10.63;8.60;;;15.30;99.90;;;;;;5099021;28;20296;-76
2021/05/17 06:03:52;;;;;;;10.30;8.87;;;15.30;99.90;;;;;;5103701;28;20362;-76
2021/05/17 06:06:19;;;;;;;11.03;9.93;;;15.30;99.90;;;;;;5095315;28;20215;-76
2021/05/17 06:08:46;;;;;;;12.90;9.57;;;15.40;99.90;;;;;;5102292;28;20298;-77
2021/05/17 06:11:13;;;;;;;10.63;9.53;;;15.40;99.90;;;;;;5098982;28;20291;-75
2021/05/17 06:13:41;;;;;;;12.67;9.47;;;15.40;99.90;;;;;;5095561;28;20316;-76
2021/05/17 06:16:10;;;;;;;11.73;9.57;;;15.40;99.90;;;;;;5105998;28;20230;-76
2021/05/17 06:18:37;;;;;;;10.87;9.73;;;15.40;99.90;;;;;;5100308;28;20266;-76
2021/05/17 06:21:04;;;;;;;12.10;10.03;;;15.40;99.90;;;;;;5102805;28;20204;-75
2021/05/17 06:23:33;;;;;;;13.47;11.47;;;15.50;99.90;;;;;;5103986;28;20224;-75
2021/05/17 06:25:59;;;;;;;14.30;10.83;;;15.50;99.90;;;;;;5103652;28;20204;-74
2021/05/17 06:28:26;;;;;;;13.70;11.70;;;15.60;99.90;;;;;;5101091;28;20267;-69
2021/05/17 06:30:56;;;;;;;15.67;11.50;;;15.70;99.90;;;;;;5094050;28;20289;-69
2021/05/17 06:33:23;;;;;;;15.63;11.63;;;15.70;99.90;;;;;;5095001;28;20197;-70
2021/05/17 06:35:53;;;;;;;13.57;11.27;;;15.80;99.90;;;;;;5100450;28;20285;-68
2021/05/17 06:38:20;;;;;;;15.67;11.93;;;15.80;99.90;;;;;;5102901;28;20223;-69
2021/05/17 06:40:48;;;;;;;14.93;11.87;;;16.00;99.90;;;;;;5103906;28;20212;-72
2021/05/17 06:43:15;;;;;;;13.60;11.70;;;16.00;99.90;;;;;;5092250;28;20334;-71
2021/05/17 06:45:42;;;;;;;17.67;11.63;;;16.10;99.90;;;;;;5103426;28;20207;-71
2021/05/17 06:48:09;;;;;;;13.57;11.07;;;16.10;99.90;;;;;;5098859;28;20240;-71
2021/05/17 06:50:36;;;;;;;13.83;12.40;;;16.20;99.90;;;;;;5101069;28;20303;-71
2021/05/17 06:53:03;;;;;;;16.57;12.60;;;16.20;99.90;;;;;;5097310;28;20624;-73
2021/05/17 06:55:34;;;;;;;14.37;10.83;;;16.20;99.90;;;;;;5099593;28;20199;-71
2021/05/17 06:58:15;;;;;;;17.70;14.13;;;16.20;99.90;;;;;;5090485;28;20201;-72
2021/05/17 07:00:42;;;;;;;15.63;11.93;;;16.30;99.90;;;;;;5092430;28;20779;-69
2021/05/17 07:03:10;;;;;;;14.77;11.40;;;16.30;99.90;;;;;;5097795;28;20318;-70
2021/05/17 07:05:38;;;;;;;17.07;12.37;;;16.30;99.90;;;;;;5094127;28;20236;-70
2021/05/17 07:13:36;;;;;;;18.90;12.40;;;16.30;99.90;;;;;;5091847;28;20250;-70
2021/05/17 07:16:02;;;;;;;15.20;11.77;;;16.30;99.90;;;;;;5091488;28;20709;-69
2021/05/17 07:18:28;;;;;;;16.07;11.53;;;16.40;99.90;;;;;;5094019;28;20658;-71
2021/05/17 07:23:41;;;;;;;17.77;13.10;;;16.60;99.90;;;;;;5092385;28;20242;-70
2021/05/17 07:26:12;;;;;;;16.10;11.20;;;16.70;99.90;;;;;;5098455;28;20637;-67
2021/05/17 07:28:39;;;;;;;12.60;9.80;;;16.80;99.90;;;;;;5092171;28;20237;-71
2021/05/17 07:31:08;;;;;;;10.90;9.23;;;16.90;99.90;;;;;;5091904;28;20516;-71
2021/05/17 07:33:35;;;;;;;11.83;10.13;;;16.90;99.90;;;;;;5101451;28;20534;-69
2021/05/17 07:36:03;;;;;;;11.53;8.87;;;16.90;99.90;;;;;;5096601;28;20211;-69
2021/05/17 07:38:31;;;;;;;11.07;9.17;;;17.00;99.90;;;;;;5096305;28;20287;-69
2021/05/17 07:40:59;;;;;;;12.27;10.07;;;17.00;99.90;;;;;;5088952;28;20266;-70
2021/05/17 07:43:25;;;;;;;9.87;8.53;;;17.10;99.90;;;;;;5098096;28;20311;-71
2021/05/17 07:45:53;;;;;;;12.07;8.90;;;17.10;99.90;;;;;;5109820;28;20214;-68
2021/05/17 07:48:20;;;;;;;11.87;9.43;;;17.20;99.90;;;;;;5098627;28;20563;-69
2021/05/17 07:50:47;;;;;;;10.60;8.90;;;17.20;99.90;;;;;;5094035;28;20684;-68
2021/05/17 07:53:14;;;;;;;11.93;8.33;;;17.30;99.90;;;;;;5095300;28;20296;-69
2021/05/17 07:55:41;;;;;;;11.80;9.70;;;17.50;99.90;;;;;;5106445;28;20279;-69
2021/05/17 07:58:08;;;;;;;11.40;9.53;;;17.60;99.90;;;;;;5101409;28;20248;-69
2021/05/17 08:00:35;;;;;;;12.90;8.40;;;17.60;99.90;;;;;;5098373;27;20704;-70
2021/05/17 08:03:02;;;;;;;10.63;8.47;;;17.60;99.90;;;;;;5101611;28;20219;-70
2021/05/17 08:05:31;;;;;;;8.03;7.30;;;17.70;99.90;;;;;;5097189;28;20208;-67
2021/05/17 08:07:58;;;;;;;8.47;7.37;;;17.80;99.90;;;;;;5106074;28;20243;-69
2021/05/17 08:10:25;;;;;;;12.70;8.43;;;17.90;99.90;;;;;;5093896;28;20538;-67
2021/05/17 08:12:51;;;;;;;8.63;6.40;;;18.00;99.90;;;;;;5101009;28;20211;-68
2021/05/17 08:15:18;;;;;;;7.77;6.57;;;18.10;99.90;;;;;;5103511;28;20587;-69
2021/05/17 08:17:45;;;;;;;9.97;7.33;;;18.30;99.90;;;;;;5102644;28;20693;-71
2021/05/17 08:20:13;;;;;;;8.50;7.30;;;18.40;99.90;;;;;;5102807;28;20295;-68
2021/05/17 08:22:40;;;;;;;8.23;6.97;;;18.60;99.90;;;;;;5092871;28;20223;-69
2021/05/17 08:25:07;;;;;;;10.20;8.10;;;18.70;99.90;;;;;;5102194;28;20721;-69
2021/05/17 08:27:34;;;;;;;7.67;6.60;;;18.80;99.90;;;;;;5099413;28;20228;-71
2021/05/17 08:30:00;;;;;;;7.03;6.17;;;18.80;99.90;;;;;;5099836;28;20227;-69
2021/05/17 08:32:27;;;;;;;11.03;6.53;;;18.90;99.90;;;;;;5093347;28;20213;-70
2021/05/17 08:34:53;;;;;;;7.07;5.32;;;19.00;99.90;;;;;;5091276;28;20295;-73
2021/05/17 08:37:20;;;;;;;7.07;5.55;;;19.20;99.90;;;;;;5098562;28;20222;-74
2021/05/17 08:39:46;;;;;;;7.63;5.03;;;19.40;99.90;;;;;;5094417;28;20265;-72
2021/05/17 08:42:13;;;;;;;5.18;4.10;;;19.50;99.90;;;;;;5094491;28;20896;-73
2021/05/17 08:44:39;;;;;;;6.88;4.65;;;19.50;98.80;;;;;;5094654;28;20685;-72
2021/05/17 08:47:06;;;;;;;5.43;3.78;;;19.50;97.90;;;;;;5101517;28;20209;-71
2021/05/17 08:49:33;;;;;;;5.68;3.90;;;19.60;97.60;;;;;;5114208;28;20202;-73
2021/05/17 08:51:59;;;;;;;4.35;3.83;;;19.60;95.60;;;;;;5098825;28;20219;-74
2021/05/17 08:54:26;;;;;;;5.18;3.38;;;19.60;95.20;;;;;;5093446;28;20211;-74
2021/05/17 08:56:53;;;;;;;4.43;3.07;;;19.60;95.00;;;;;;5100172;28;20200;-70
2021/05/17 08:59:20;;;;;;;5.20;4.00;;;19.60;93.80;;;;;;5097014;28;20208;-70
2021/05/17 09:01:47;;;;;;;3.60;3.30;;;19.70;93.10;;;;;;5101427;28;20637;-71
2021/05/17 09:04:16;;;;;;;3.40;3.10;;;19.80;92.90;;;;;;5101225;28;20600;-71
2021/05/17 09:06:44;;;;;;;6.20;2.95;;;19.90;91.50;;;;;;5104587;28;20231;-70
2021/05/17 09:09:29;;;;;;;2.90;2.60;;;19.90;90.30;;;;;;5102076;28;20227;-70
2021/05/17 09:11:58;;;;;;;3.67;2.75;;;20.10;90.00;;;;;;5092200;28;20216;-70
2021/05/17 09:14:27;;;;;;;2.65;2.38;;;20.20;87.30;;;;;;5091743;28;20229;-70
2021/05/17 09:16:56;;;;;;;2.22;2.03;;;20.40;85.90;;;;;;5095514;28;20680;-70
2021/05/17 09:19:25;;;;;;;4.15;2.40;;;20.50;83.80;;;;;;5100260;28;20258;-70
2021/05/17 09:22:10;;;;;;;3.47;3.08;;;20.70;80.90;;;;;;5096465;28;21902;-70
2021/05/17 09:24:46;;;;;;;5.18;3.53;;;20.80;81.20;;;;;;5093262;28;20688;-70
2021/05/17 09:27:14;;;;;;;3.28;2.78;;;20.80;81.30;;;;;;5096327;28;20211;-71
2021/05/17 09:29:43;;;;;;;3.63;3.20;;;21.00;81.30;;;;;;5106302;28;20221;-69
2021/05/17 09:32:19;;;;;;;3.50;3.20;;;21.20;80.00;;;;;;5102220;28;20208;-70
2021/05/17 09:34:47;;;;;;;3.33;3.03;;;21.30;77.70;;;;;;5103581;28;20207;-70
2021/05/17 09:37:13;;;;;;;3.35;2.60;;;21.50;76.60;;;;;;5097324;28;20237;-70
2021/05/17 09:39:50;;;;;;;4.93;3.03;;;21.60;75.50;;;;;;5091575;28;20213;-71
2021/05/17 09:42:21;;;;;;;3.75;3.10;;;21.90;75.00;;;;;;5098224;28;20207;-70
2021/05/17 09:44:49;;;;;;;6.57;3.50;;;22.10;73.70;;;;;;5087846;28;20209;-71
2021/05/17 09:47:20;;;;;;;3.33;3.00;;;22.30;73.10;;;;;;5089936;28;20668;-70
2021/05/17 09:49:49;;;;;;;5.22;3.05;;;22.40;69.80;;;;;;5083300;28;20292;-72
2021/05/17 09:52:18;;;;;;;2.90;2.65;;;22.40;67.60;;;;;;5095934;28;20291;-68
2021/05/17 09:54:55;;;;;;;3.90;2.33;;;22.40;66.70;;;;;;5095747;28;20208;-69
2021/05/17 09:57:23;;;;;;;4.07;2.15;;;22.50;64.90;;;;;;5097577;28;20248;-69
2021/05/17 09:59:51;;;;;;;3.25;1.70;;;22.70;63.80;;;;;;5092258;28;20241;-68
2021/05/17 10:02:40;;;;;;;1.80;1.67;;;22.80;62.60;;;;;;5095064;28;20207;-69
2021/05/17 10:05:25;;;;;;;2.30;1.15;;;22.90;61.10;;;;;;5093797;28;20307;-70
2021/05/17 10:07:54;;;;;;;2.33;1.10;;;23.20;57.00;;;;;;5097234;28;20211;-69
2021/05/17 10:10:23;;;;;;;2.03;0.98;;;23.30;54.20;;;;;;5089616;28;20201;-70
2021/05/17 10:12:50;;;;;;;1.33;1.02;;;23.50;53.30;;;;;;5095876;28;20197;-71
2021/05/17 10:15:17;;;;;;;3.38;1.40;;;23.60;51.50;;;;;;5099962;28;20247;-70
2021/05/17 10:17:45;;;;;;;1.55;1.13;;;23.70;52.70;;;;;;5094499;28;20213;-70
2021/05/17 10:20:15;;;;;;;2.58;1.50;;;23.90;53.50;;;;;;5094279;28;20228;-69
2021/05/17 10:22:42;;;;;;;2.50;1.08;;;24.10;53.00;;;;;;5094602;28;20723;-72
2021/05/17 10:25:11;;;;;;;2.85;1.25;;;24.30;52.50;;;;;;5086829;28;20205;-71
2021/05/17 10:27:47;;;;;;;3.75;2.22;;;24.60;51.60;;;;;;5090365;28;20573;-69
2021/05/17 10:30:16;;;;;;;1.90;1.75;;;24.80;53.60;;;;;;5091308;28;20315;-69
2021/05/17 10:32:44;;;;;;;2.47;2.00;;;25.00;53.80;;;;;;5092624;28;20242;-70
2021/05/17 10:35:15;;;;;;;3.10;2.00;;;25.20;53.40;;;;;;5092650;28;20212;-71
2021/05/17 10:37:44;;;;;;;3.38;1.48;;;25.30;52.10;;;;;;5083216;28;20228;-70
2021/05/17 10:40:15;;;;;;;4.22;2.33;;;25.40;52.10;;;;;;5094532;28;20567;-70
2021/05/17 10:42:51;;;;;;;2.65;1.80;;;25.50;51.10;;;;;;5092493;28;20240;-70
2021/05/17 10:48:20;;;;;;;2.33;1.70;;;25.60;51.50;;;;;;5088449;28;20254;-70
2021/05/17 10:50:48;;;;;;;5.20;2.42;;;25.70;51.30;;;;;;5097795;28;20204;-69
2021/05/17 10:53:40;;;;;;;2.22;2.03;;;25.60;51.00;;;;;;5092989;28;20235;-72
2021/05/17 10:56:07;;;;;;;5.30;2.00;;;25.40;51.10;;;;;;5093440;28;20212;-69
2021/05/17 11:01:57;;;;;;;2.45;1.70;;;25.00;51.10;;;;;;5050762;28;20578;-69
2021/05/17 11:04:30;;;;;;;3.28;1.42;;;25.00;50.90;;;;;;5082349;28;20705;-69
2021/05/17 11:07:29;;;;;;;3.67;1.70;;;25.00;50.50;;;;;;5093100;28;20212;-69
2021/05/17 11:10:00;;;;;;;4.32;1.30;;;24.90;49.70;;;;;;5095350;28;20201;-70
2021/05/17 11:12:55;;;;;;;5.32;1.83;;;24.60;50.30;;;;;;5093772;28;20208;-72
2021/05/17 11:15:24;;;;;;;2.78;1.73;;;24.30;50.80;;;;;;5091227;28;20225;-69
2021/05/17 11:17:55;;;;;;;3.22;1.67;;;24.30;52.10;;;;;;5100824;28;20287;-70
2021/05/17 11:20:48;;;;;;;3.47;2.00;;;24.50;51.80;;;;;;5104220;28;20283;-71
2021/05/17 11:23:17;;;;;;;2.65;2.00;;;24.60;50.30;;;;;;5092000;28;20231;-73
2021/05/17 11:25:50;;;;;;;2.08;1.55;;;24.50;50.60;;;;;;5091177;28;20291;-72
2021/05/17 11:28:18;;;;;;;1.65;1.45;;;24.30;50.70;;;;;;5101670;28;20284;-76
2021/05/17 11:30:48;;;;;;;4.05;1.70;;;24.00;50.50;;;;;;5105712;28;20522;-72
2021/05/17 11:33:17;;;;;;;3.70;1.38;;;23.90;50.80;;;;;;5097076;28;20642;-73
2021/05/17 11:36:00;;;;;;;2.83;1.50;;;23.90;51.10;;;;;;5104933;28;20887;-71
2021/05/17 11:38:27;;;;;;;3.00;1.77;;;23.80;50.80;;;;;;5098025;28;20208;-73
2021/05/17 11:40:53;;;;;;;3.92;1.50;;;23.80;51.10;;;;;;5095080;28;20216;-72
2021/05/17 11:43:21;;;;;;;3.28;1.42;;;24.00;51.70;;;;;;5108810;28;20621;-72
2021/05/17 11:45:48;;;;;;;3.78;1.58;;;24.40;50.50;;;;;;5094015;28;20208;-71
2021/05/17 11:48:15;;;;;;;1.95;1.55;;;24.60;50.20;;;;;;5093080;28;20291;-71
2021/05/17 11:50:41;;;;;;;2.13;1.30;;;24.70;50.30;;;;;;5102151;28;20197;-74
2021/05/17 11:53:16;;;;;;;2.65;1.55;;;24.50;49.30;;;;;;5111540;28;20242;-71
2021/05/17 11:55:47;;;;;;;2.95;1.50;;;24.30;50.50;;;;;;5098869;28;20282;-72
2021/05/17 11:58:13;;;;;;;2.00;1.67;;;24.10;49.80;;;;;;5098605;28;20311;-73
2021/05/17 12:00:40;;;;;;;3.50;1.63;;;23.90;50.20;;;;;;5098400;28;20305;-72
2021/05/17 12:03:10;;;;;;;4.65;1.60;;;23.80;50.80;;;;;;5101915;28;20231;-74
2021/05/17 12:05:37;;;;;;;4.00;2.65;;;23.60;50.40;;;;;;5098918;28;20204;-70
2021/05/17 12:08:04;;;;;;;2.67;1.80;;;23.40;51.30;;;;;;5106477;28;20565;-69
2021/05/17 12:10:34;;;;;;;2.50;1.77;;;23.30;51.70;;;;;;5106978;28;20737;-72
2021/05/17 12:13:07;;;;;;;3.20;1.90;;;23.10;51.80;;;;;;5093071;28;20203;-68
2021/05/17 12:15:34;;;;;;;1.73;1.63;;;22.90;52.30;;;;;;5086577;28;20223;-71
2021/05/17 12:18:08;;;;;;;3.25;2.00;;;22.70;52.10;;;;;;5093773;28;20211;-74
2021/05/17 12:20:37;;;;;;;1.77;1.67;;;22.60;52.30;;;;;;5093459;28;20262;-74
2021/05/17 12:23:04;;;;;;;3.13;1.77;;;22.40;52.70;;;;;;5094120;28;20232;-74
2021/05/17 12:25:30;;;;;;;5.53;2.20;;;22.40;52.80;;;;;;5093183;28;20201;-77
2021/05/17 12:27:57;;;;;;;3.58;1.70;;;22.10;52.90;;;;;;5106064;28;20267;-75
2021/05/17 12:30:24;;;;;;;2.15;1.67;;;22.00;53.60;;;;;;5091510;28;20214;-73
2021/05/17 12:32:52;;;;;;;3.95;1.45;;;21.80;54.30;;;;;;5084304;28;20204;-73
2021/05/17 12:35:27;;;;;;;2.15;1.80;;;21.70;53.80;;;;;;5091835;28;20208;-72
2021/05/17 12:37:57;;;;;;;2.05;1.27;;;21.60;54.00;;;;;;5094674;28;20542;-71
2021/05/17 12:40:29;;;;;;;2.67;1.70;;;21.50;54.20;;;;;;5096215;28;20683;-72
2021/05/17 12:43:12;;;;;;;2.80;1.80;;;21.40;54.30;;;;;;5096780;28;20216;-72
2021/05/17 12:45:41;;;;;;;3.88;2.13;;;21.40;54.40;;;;;;5086241;28;20339;-73
2021/05/17 12:48:17;;;;;;;3.08;2.20;;;21.30;54.80;;;;;;5094937;28;20611;-69
2021/05/17 12:50:44;;;;;;;4.53;1.98;;;21.30;55.20;;;;;;5093832;28;20361;-69
2021/05/17 12:53:13;;;;;;;2.00;1.80;;;21.40;55.30;;;;;;5096079;28;20287;-72
2021/05/17 12:55:42;;;;;;;2.10;1.50;;;21.50;55.00;;;;;;5096098;28;20677;-70
2021/05/17 12:58:09;;;;;;;2.13;1.65;;;21.60;54.70;;;;;;5097099;28;20201;-72
2021/05/17 13:00:46;;;;;;;2.70;1.80;;;21.70;55.00;;;;;;5097513;28;20692;-70
2021/05/17 13:03:15;;;;;;;2.78;1.40;;;21.90;55.20;;;;;;5097970;28;20216;-71
2021/05/17 13:06:00;;;;;;;3.15;1.63;;;22.10;54.70;;;;;;5100243;28;20629;-72
2021/05/17 13:08:49;;;;;;;3.03;1.48;;;22.20;54.30;;;;;;5097812;28;20200;-70
2021/05/17 13:11:22;;;;;;;2.08;1.30;;;22.30;54.40;;;;;;5093777;28;20242;-72